Time;durP1;ratioP1;P1;durP2;ratioP2;P2;SDS_P1;SDS_P2;PMS_P1;PMS_P2;Temp;Humidity;BMP_temperature;BMP_pressure;BME280_temperature;BME280_humidity;BME280_pressure;Samples;Min_cycle;Max_cycle;Signal;HPM_P1;HPM_P2
2023/03/11 00:01:44;;;;;;;5.75;2.20;;;;;;;-5.13;63.68;99964.75;4980259;28;20161;-75
2023/03/11 00:04:11;;;;;;;6.22;1.63;;;;;;;-5.16;64.65;99962.09;4988955;28;20050;-75
2023/03/11 00:06:38;;;;;;;5.65;1.88;;;;;;;-5.20;63.77;99962.00;4986764;28;20053;-76
2023/03/11 00:09:06;;;;;;;4.38;1.95;;;;;;;-5.24;64.41;99965.28;4982232;28;20058;-75
2023/03/11 00:11:32;;;;;;;6.00;1.73;;;;;;;-5.27;64.26;99967.72;4989416;28;20415;-75
2023/03/11 00:13:59;;;;;;;6.18;2.03;;;;;;;-5.29;64.21;99965.97;4981270;28;20651;-75
2023/03/11 00:16:26;;;;;;;7.55;1.85;;;;;;;-5.33;64.02;99956.47;4988191;28;20050;-75
2023/03/11 00:18:55;;;;;;;4.93;2.03;;;;;;;-5.34;63.97;99960.72;4979629;28;20574;-75
2023/03/11 00:21:21;;;;;;;3.90;1.52;;;;;;;-5.37;64.13;99957.22;4990686;28;20046;-75
2023/03/11 00:23:48;;;;;;;5.13;1.50;;;;;;;-5.40;64.69;99952.03;4984031;28;20057;-75
2023/03/11 00:26:15;;;;;;;4.18;1.30;;;;;;;-5.46;64.76;99948.47;4985637;28;20054;-75
2023/03/11 00:28:42;;;;;;;5.95;1.52;;;;;;;-5.47;64.17;99946.72;4989432;28;20053;-74
2023/03/11 00:31:12;;;;;;;8.18;1.83;;;;;;;-5.49;64.47;99957.69;4985133;28;20495;-75
2023/03/11 00:33:39;;;;;;;5.60;1.65;;;;;;;-5.53;64.08;99951.59;4977513;28;20053;-74
2023/03/11 00:36:08;;;;;;;2.97;1.17;;;;;;;-5.57;64.08;99949.78;4987562;28;20052;-75
2023/03/11 00:38:35;;;;;;;6.25;1.65;;;;;;;-5.61;64.07;99945.41;4980843;28;20046;-74
2023/03/11 00:41:02;;;;;;;2.25;1.35;;;;;;;-5.63;64.02;99947.03;4983644;28;20051;-75
2023/03/11 00:43:29;;;;;;;4.13;1.30;;;;;;;-5.66;64.10;99945.25;4989101;28;20054;-74
2023/03/11 00:45:55;;;;;;;2.90;0.98;;;;;;;-5.69;63.91;99942.63;4975774;28;20054;-74
2023/03/11 00:48:22;;;;;;;4.28;1.38;;;;;;;-5.71;63.76;99944.25;4989390;28;20498;-75
2023/03/11 00:50:50;;;;;;;4.15;1.48;;;;;;;-5.76;64.31;99938.13;4974101;28;20057;-75
2023/03/11 00:53:18;;;;;;;3.67;1.30;;;;;;;-5.78;64.43;99934.66;4990253;28;20078;-74
2023/03/11 00:55:45;;;;;;;6.88;1.60;;;;;;;-5.81;63.86;99937.09;4985668;28;20400;-75
2023/03/11 00:58:12;;;;;;;8.05;1.88;;;;;;;-5.85;64.58;99930.19;4986355;28;20399;-74
2023/03/11 01:00:39;;;;;;;3.08;1.38;;;;;;;-5.88;64.45;99927.56;4987267;28;20105;-74
2023/03/11 01:03:06;;;;;;;3.80;1.30;;;;;;;-5.88;63.84;99930.09;4986942;28;20054;-75
2023/03/11 01:05:34;;;;;;;5.25;2.00;;;;;;;-5.92;64.52;99936.75;4979857;28;20053;-75
2023/03/11 01:08:02;;;;;;;6.70;1.63;;;;;;;-5.95;64.76;99930.72;4983258;28;20053;-75
2023/03/11 01:10:31;;;;;;;3.50;1.42;;;;;;;-5.98;64.58;99928.94;4980660;28;20043;-75
2023/03/11 01:12:58;;;;;;;4.25;1.38;;;;;;;-6.00;63.99;99929.72;4970203;28;21216;-75
2023/03/11 01:15:28;;;;;;;3.15;1.00;;;;;;;-6.02;64.08;99936.41;4985059;28;20050;-76
2023/03/11 01:17:55;;;;;;;4.13;1.48;;;;;;;-6.06;64.47;99938.00;4976128;28;20046;-75
2023/03/11 01:20:22;;;;;;;2.28;1.20;;;;;;;-6.11;63.98;99920.03;4987734;28;20054;-75
2023/03/11 01:22:49;;;;;;;5.00;1.20;;;;;;;-6.13;63.77;99931.81;4987324;28;20038;-75
2023/03/11 01:25:19;;;;;;;3.70;1.30;;;;;;;-6.14;63.85;99931.78;4976549;28;20065;-75
2023/03/11 01:27:47;;;;;;;3.65;1.77;;;;;;;-6.17;64.46;99934.22;4972573;28;20058;-75
2023/03/11 01:30:18;;;;;;;4.55;1.17;;;;;;;-6.21;63.90;99933.22;4977435;28;20414;-75
2023/03/11 01:32:45;;;;;;;3.28;1.05;;;;;;;-6.23;63.70;99929.78;4983834;28;20609;-75
2023/03/11 01:35:14;;;;;;;4.28;1.80;;;;;;;-6.27;64.37;99925.38;4984529;28;20057;-75
2023/03/11 01:37:41;;;;;;;6.70;1.77;;;;;;;-6.29;63.86;99923.59;4978656;28;20051;-75
2023/03/11 01:40:14;;;;;;;3.88;1.40;;;;;;;-6.32;63.78;99929.44;4976935;28;20058;-75
2023/03/11 01:42:41;;;;;;;4.22;1.40;;;;;;;-6.36;63.76;99925.94;4986811;28;20049;-75
2023/03/11 01:45:33;;;;;;;4.15;1.40;;;;;;;-6.39;64.48;99917.34;4988512;28;20050;-75
2023/03/11 01:47:59;;;;;;;7.18;1.60;;;;;;;-6.41;63.82;99913.88;4986559;28;20097;-75
2023/03/11 01:50:31;;;;;;;3.33;1.13;;;;;;;-6.44;63.95;99911.22;4986705;28;20491;-74
2023/03/11 01:52:58;;;;;;;2.03;1.10;;;;;;;-6.47;64.64;99908.56;4988055;28;20046;-74
2023/03/11 01:55:24;;;;;;;9.52;2.20;;;;;;;-6.49;63.83;99911.03;4984754;28;20061;-75
2023/03/11 01:57:53;;;;;;;4.00;1.50;;;;;;;-6.52;64.47;99915.16;4972318;28;20057;-75
2023/03/11 02:00:22;;;;;;;7.07;2.05;;;;;;;-6.54;63.86;99911.72;4989055;28;20058;-75
2023/03/11 02:02:52;;;;;;;4.18;1.58;;;;;;;-6.57;64.59;99908.25;4979441;28;20062;-75
2023/03/11 02:05:21;;;;;;;6.38;2.88;;;;;;;-6.61;63.94;99906.38;4983546;28;20046;-75
2023/03/11 02:07:50;;;;;;;6.05;1.85;;;;;;;-6.63;64.06;99910.56;4987955;28;20061;-75
2023/03/11 02:10:17;;;;;;;6.88;1.95;;;;;;;-6.67;64.35;99901.09;4979576;28;20058;-75
2023/03/11 02:12:45;;;;;;;6.03;1.90;;;;;;;-6.66;64.44;99910.47;4988334;28;20486;-75
2023/03/11 02:15:13;;;;;;;6.65;2.08;;;;;;;-6.68;63.90;99909.53;4974553;28;20048;-75
2023/03/11 02:17:43;;;;;;;7.07;1.67;;;;;;;-6.70;64.66;99908.59;4972141;28;20049;-75
2023/03/11 02:20:19;;;;;;;5.18;1.67;;;;;;;-6.71;64.28;99904.34;4987322;28;20064;-75
2023/03/11 02:22:47;;;;;;;3.60;1.67;;;;;;;-6.73;64.24;99905.97;4977651;28;20513;-75
2023/03/11 02:25:24;;;;;;;4.75;1.77;;;;;;;-6.74;64.92;99899.16;4983669;28;20054;-74
2023/03/11 02:27:54;;;;;;;9.98;1.55;;;;;;;-6.75;64.76;99896.53;4985586;28;20046;-75
2023/03/11 02:30:23;;;;;;;4.95;1.67;;;;;;;-6.79;64.55;99888.81;4973745;28;20427;-75
2023/03/11 02:32:50;;;;;;;8.60;2.10;;;;;;;-6.75;64.21;99896.53;4984353;28;20125;-75
2023/03/11 02:35:17;;;;;;;5.05;1.60;;;;;;;-6.76;64.02;99890.59;4969859;28;20068;-75
2023/03/11 02:37:46;;;;;;;7.93;1.95;;;;;;;-6.76;65.01;99884.66;4972492;28;20042;-74
2023/03/11 02:40:36;;;;;;;4.10;1.58;;;;;;;-6.77;65.04;99883.81;4970549;28;20062;-76
2023/03/11 02:43:09;;;;;;;6.28;1.40;;;;;;;-6.75;64.73;99881.31;4986296;28;20053;-74
2023/03/11 02:45:38;;;;;;;4.68;2.47;;;;;;;-6.81;64.08;99877.72;4977157;28;20487;-75
2023/03/11 02:48:08;;;;;;;11.82;2.67;;;;;;;-6.74;64.76;99883.03;4983597;28;20053;-75
2023/03/11 02:50:37;;;;;;;7.25;2.45;;;;;;;-6.74;64.82;99891.53;4986850;28;20051;-74
2023/03/11 02:53:05;;;;;;;8.57;1.58;;;;;;;-6.72;64.28;99886.50;4975520;28;20050;-75
2023/03/11 02:55:32;;;;;;;6.68;1.88;;;;;;;-6.72;64.59;99882.28;4986590;28;20053;-74
2023/03/11 02:57:59;;;;;;;5.82;1.48;;;;;;;-6.70;64.26;99885.75;4987917;28;20044;-75
2023/03/11 03:00:28;;;;;;;6.00;1.88;;;;;;;-6.69;64.53;99879.00;4985556;28;20517;-75
2023/03/11 03:02:55;;;;;;;4.80;1.70;;;;;;;-6.68;64.96;99886.69;4992031;28;20081;-75
2023/03/11 03:05:22;;;;;;;5.25;1.83;;;;;;;-6.67;64.54;99880.78;4987071;28;20043;-75
2023/03/11 03:07:50;;;;;;;4.03;1.67;;;;;;;-6.66;64.50;99877.44;4979414;28;20065;-75
2023/03/11 03:10:19;;;;;;;5.72;1.60;;;;;;;-6.65;65.31;99876.63;4993518;28;20054;-75
2023/03/11 03:12:46;;;;;;;5.78;1.77;;;;;;;-6.66;64.68;99872.38;4993316;28;20057;-74
2023/03/11 03:15:14;;;;;;;3.90;1.67;;;;;;;-6.63;65.29;99874.13;4992155;28;20412;-75
2023/03/11 03:17:43;;;;;;;5.03;1.52;;;;;;;-6.62;64.96;99866.56;4985404;28;20053;-75
2023/03/11 03:20:12;;;;;;;3.85;1.73;;;;;;;-6.60;65.12;99867.50;4990079;28;20058;-75
2023/03/11 03:22:39;;;;;;;7.30;1.85;;;;;;;-6.60;64.81;99870.03;4978694;28;20065;-75
2023/03/11 03:25:07;;;;;;;3.95;2.15;;;;;;;-6.57;65.35;99864.22;4979457;28;20062;-76
2023/03/11 03:27:35;;;;;;;5.60;2.50;;;;;;;-6.56;64.81;99874.41;4990952;28;20054;-75
2023/03/11 03:30:02;;;;;;;6.82;1.75;;;;;;;-6.54;65.33;99860.91;4980480;28;20050;-74
2023/03/11 03:32:29;;;;;;;5.90;1.80;;;;;;;-6.54;65.20;99866.00;4981746;28;20050;-75
2023/03/11 03:34:58;;;;;;;5.45;1.70;;;;;;;-6.53;65.15;99862.63;4978466;28;20060;-74
2023/03/11 03:37:26;;;;;;;6.20;2.08;;;;;;;-6.51;65.18;99868.63;4979705;28;20053;-74
2023/03/11 03:39:53;;;;;;;3.67;1.48;;;;;;;-6.53;65.10;99862.63;4978067;28;20120;-74
2023/03/11 03:42:20;;;;;;;6.15;2.10;;;;;;;-6.51;64.77;99866.97;4991235;28;20054;-75
2023/03/11 03:44:47;;;;;;;3.88;1.52;;;;;;;-6.50;64.93;99855.13;4986744;28;20056;-74
2023/03/11 03:47:14;;;;;;;8.82;2.30;;;;;;;-6.48;65.37;99856.03;4987848;28;20047;-75
2023/03/11 03:49:41;;;;;;;5.80;1.70;;;;;;;-6.47;65.04;99850.13;4979233;28;21443;-74
2023/03/11 03:52:09;;;;;;;3.50;1.35;;;;;;;-6.46;65.04;99849.31;4989555;28;20057;-75
2023/03/11 03:54:36;;;;;;;4.55;1.70;;;;;;;-6.45;65.20;99838.38;4978938;28;21178;-75
2023/03/11 03:57:04;;;;;;;5.88;1.90;;;;;;;-6.42;65.19;99841.00;4987679;28;20046;-75
2023/03/11 03:59:31;;;;;;;5.78;1.30;;;;;;;-6.41;65.01;99837.63;4987010;28;20081;-75
2023/03/11 04:01:58;;;;;;;3.13;1.27;;;;;;;-6.43;65.20;99824.00;4981908;28;20422;-74
2023/03/11 04:04:25;;;;;;;6.20;1.27;;;;;;;-6.43;65.38;99819.81;4973126;28;20428;-74
2023/03/11 04:06:52;;;;;;;5.18;1.90;;;;;;;-6.35;65.87;99835.31;4986943;28;20050;-75
2023/03/11 04:09:20;;;;;;;4.53;1.52;;;;;;;-6.31;65.07;99831.22;4988782;28;20042;-74
2023/03/11 04:11:47;;;;;;;3.92;0.88;;;;;;;-6.32;65.40;99822.69;4981506;28;20046;-75
2023/03/11 04:14:15;;;;;;;3.08;0.73;;;;;;;-6.24;65.27;99830.59;4976067;28;20061;-75
2023/03/11 04:16:42;;;;;;;2.15;0.63;;;;;;;-6.21;65.86;99825.59;4988717;28;20060;-75
2023/03/11 04:19:09;;;;;;;4.43;1.20;;;;;;;-6.19;65.64;99822.31;4989006;28;20046;-74
2023/03/11 04:21:36;;;;;;;2.35;0.52;;;;;;;-6.12;66.27;99820.81;4989388;28;20069;-75
2023/03/11 04:24:03;;;;;;;5.82;1.02;;;;;;;-6.09;65.50;99809.91;4982858;28;20054;-75
2023/03/11 04:26:31;;;;;;;3.85;1.40;;;;;;;-6.11;66.24;99798.00;4979639;28;20066;-75
2023/03/11 04:28:58;;;;;;;0.88;0.45;;;;;;;-6.01;65.95;99811.00;4989673;28;20042;-75
2023/03/11 04:31:25;;;;;;;3.95;0.82;;;;;;;-6.05;65.78;99794.81;4979785;28;20487;-75
2023/03/11 04:33:52;;;;;;;3.00;0.80;;;;;;;-5.96;65.84;99796.78;4985443;28;20042;-75
2023/03/11 04:36:18;;;;;;;1.58;0.50;;;;;;;-5.89;65.73;99804.63;4989850;28;20054;-74
2023/03/11 04:38:45;;;;;;;4.18;0.80;;;;;;;-5.89;66.52;99801.22;4985275;28;20038;-75
2023/03/11 04:41:12;;;;;;;8.02;1.23;;;;;;;-5.81;65.92;99802.31;4980791;28;20050;-74
2023/03/11 04:43:40;;;;;;;1.63;0.47;;;;;;;-5.77;66.79;99793.97;4979029;28;20050;-75
2023/03/11 04:46:07;;;;;;;2.72;0.60;;;;;;;-5.74;66.84;99799.16;4987149;28;20387;-74
2023/03/11 04:48:34;;;;;;;3.00;0.50;;;;;;;-5.70;66.17;99793.31;4977695;28;20057;-75
2023/03/11 04:51:01;;;;;;;8.90;0.75;;;;;;;-5.63;66.44;99793.50;4987359;28;20046;-75
2023/03/11 04:53:28;;;;;;;0.98;0.50;;;;;;;-5.66;66.78;99777.34;4987426;28;20050;-75
2023/03/11 04:55:55;;;;;;;0.50;0.30;;;;;;;-5.55;66.46;99779.34;4982243;28;20060;-75
2023/03/11 04:58:22;;;;;;;5.40;0.55;;;;;;;-5.54;66.77;99776.84;4977498;28;20781;-76
2023/03/11 05:00:50;;;;;;;1.80;0.50;;;;;;;-5.51;66.96;99776.09;4988032;28;20567;-74
2023/03/11 05:03:17;;;;;;;0.63;0.47;;;;;;;-5.43;66.68;99779.72;4977865;28;20065;-74
2023/03/11 05:05:45;;;;;;;4.95;0.43;;;;;;;-5.39;66.73;99781.53;4975149;28;20621;-75
2023/03/11 05:08:12;;;;;;;0.93;0.40;;;;;;;-5.34;67.20;99777.44;4984201;28;20047;-75
2023/03/11 05:10:40;;;;;;;4.28;0.55;;;;;;;-5.35;66.61;99763.00;4986774;28;20043;-75
2023/03/11 05:13:07;;;;;;;4.40;0.65;;;;;;;-5.26;66.50;99773.44;4986919;28;20415;-74
2023/03/11 05:15:35;;;;;;;1.38;0.40;;;;;;;-5.21;66.67;99771.00;4981102;28;20053;-74
2023/03/11 05:18:03;;;;;;;1.08;0.38;;;;;;;-5.17;66.41;99769.44;4980766;28;20049;-75
2023/03/11 05:20:31;;;;;;;3.42;0.43;;;;;;;-5.27;66.81;99755.56;4987759;28;20046;-77
2023/03/11 05:22:58;;;;;;;1.55;0.45;;;;;;;-5.10;67.26;99778.97;4990659;28;20050;-74
2023/03/11 05:25:25;;;;;;;1.20;0.50;;;;;;;-5.12;66.69;99770.41;4983984;28;20077;-75
2023/03/11 05:27:52;;;;;;;1.85;0.50;;;;;;;-5.06;67.10;99776.56;4988903;28;20046;-75
2023/03/11 05:30:19;;;;;;;0.77;0.30;;;;;;;-5.02;67.31;99772.41;4974034;28;20054;-75
2023/03/11 05:32:45;;;;;;;2.40;0.30;;;;;;;-4.97;67.08;99775.94;4989578;28;20526;-73
2023/03/11 05:35:14;;;;;;;2.78;0.40;;;;;;;-5.03;67.11;99757.97;4970334;28;20502;-74
2023/03/11 05:37:41;;;;;;;1.75;0.30;;;;;;;-4.96;66.82;99752.19;4985883;28;20061;-75
2023/03/11 05:40:10;;;;;;;0.90;0.30;;;;;;;-4.89;67.26;99761.75;4974738;28;20051;-74
2023/03/11 05:42:37;;;;;;;1.33;0.30;;;;;;;-4.85;67.39;99760.13;4986964;28;20050;-75
2023/03/11 05:45:04;;;;;;;3.63;0.50;;;;;;;-4.82;66.94;99755.97;4983306;28;20403;-75
2023/03/11 05:47:31;;;;;;;0.52;0.30;;;;;;;-4.79;67.27;99763.69;4990607;28;20058;-75
2023/03/11 05:49:58;;;;;;;3.03;0.40;;;;;;;-4.75;66.88;99757.03;4987369;28;20050;-75
2023/03/11 05:52:26;;;;;;;1.30;0.40;;;;;;;-4.72;66.91;99757.09;4982933;28;20052;-74
2023/03/11 05:54:53;;;;;;;3.55;0.40;;;;;;;-4.69;67.02;99762.28;4980810;28;20121;-75
2023/03/11 05:57:20;;;;;;;2.80;0.30;;;;;;;-4.66;67.01;99758.94;4986376;28;20054;-77
2023/03/11 05:59:47;;;;;;;4.45;0.40;;;;;;;-4.62;66.80;99758.19;4981417;28;20050;-75
2023/03/11 06:02:14;;;;;;;0.52;0.30;;;;;;;-4.59;67.22;99755.72;4977430;28;20073;-75
2023/03/11 06:04:41;;;;;;;0.50;0.30;;;;;;;-4.59;67.11;99746.38;4985189;28;20054;-74
2023/03/11 06:07:08;;;;;;;3.17;0.63;;;;;;;-4.58;67.13;99730.28;4984862;28;20057;-75
2023/03/11 06:09:37;;;;;;;1.70;0.50;;;;;;;-4.56;66.90;99727.78;4989910;28;20097;-74
2023/03/11 06:12:04;;;;;;;0.52;0.25;;;;;;;-4.50;66.90;99727.06;4976317;28;20089;-74
2023/03/11 06:14:32;;;;;;;1.25;0.75;;;;;;;-4.50;67.41;99725.38;4986457;28;20038;-75
2023/03/11 06:16:59;;;;;;;1.10;0.30;;;;;;;-4.47;67.47;99727.13;4980058;28;20047;-75
2023/03/11 06:19:26;;;;;;;1.88;0.35;;;;;;;-4.45;67.52;99720.41;4977416;28;20046;-75
2023/03/11 06:21:53;;;;;;;0.90;0.40;;;;;;;-4.41;67.51;99732.38;4984261;28;20050;-74
2023/03/11 06:24:21;;;;;;;1.45;0.30;;;;;;;-4.43;67.20;99724.72;4978303;28;20062;-74
2023/03/11 06:26:52;;;;;;;1.95;0.22;;;;;;;-4.50;67.64;99699.03;4983407;28;20050;-74
2023/03/11 06:29:20;;;;;;;2.05;0.60;;;;;;;-4.28;67.62;99734.41;4987688;28;20151;-74
2023/03/11 06:31:47;;;;;;;0.95;0.22;;;;;;;-4.24;67.54;99736.25;4973558;28;20522;-74
2023/03/11 06:34:14;;;;;;;1.27;0.47;;;;;;;-4.23;67.14;99737.09;4988797;28;20042;-77
2023/03/11 06:36:41;;;;;;;0.40;0.30;;;;;;;-4.19;67.14;99744.84;4973975;28;20072;-75
2023/03/11 06:39:08;;;;;;;1.00;0.20;;;;;;;-4.17;67.59;99737.22;4989157;28;20061;-72
2023/03/11 06:41:35;;;;;;;2.28;0.30;;;;;;;-4.09;67.32;99749.34;4985232;28;20076;-74
2023/03/11 06:44:04;;;;;;;3.85;0.40;;;;;;;-4.12;67.57;99735.66;4988992;28;20505;-74
2023/03/11 06:46:31;;;;;;;1.92;0.50;;;;;;;-4.00;67.18;99745.28;4986115;28;20054;-74
2023/03/11 06:48:57;;;;;;;1.25;0.30;;;;;;;-3.98;67.69;99752.16;4994421;28;20062;-74
2023/03/11 06:51:24;;;;;;;3.20;0.30;;;;;;;-3.99;67.42;99745.31;4987377;28;20058;-75
2023/03/11 06:53:52;;;;;;;1.05;0.30;;;;;;;-3.90;67.41;99755.75;4983952;28;20419;-74
2023/03/11 06:56:20;;;;;;;1.33;0.35;;;;;;;-3.86;67.56;99752.44;4982693;28;20494;-74
2023/03/11 06:58:47;;;;;;;1.10;0.22;;;;;;;-3.82;67.27;99755.06;4991295;28;20050;-74
2023/03/11 07:01:17;;;;;;;0.60;0.45;;;;;;;-3.78;67.40;99756.84;4976365;28;20054;-73
2023/03/11 07:03:46;;;;;;;3.92;0.40;;;;;;;-3.75;67.53;99750.13;4984205;28;20053;-75
2023/03/11 07:06:17;;;;;;;0.80;0.50;;;;;;;-3.81;67.24;99732.13;4982838;28;20137;-74
2023/03/11 07:08:44;;;;;;;0.68;0.30;;;;;;;-3.66;67.33;99750.31;4993395;28;20054;-75
2023/03/11 07:11:14;;;;;;;1.25;0.30;;;;;;;-3.63;67.44;99749.53;4989554;28;20050;-74
2023/03/11 07:13:41;;;;;;;0.82;0.30;;;;;;;-3.62;67.66;99747.00;4988091;28;20047;-78
2023/03/11 07:16:10;;;;;;;3.45;0.30;;;;;;;-3.60;67.32;99739.38;4992560;28;20420;-76
2023/03/11 07:18:39;;;;;;;1.00;0.30;;;;;;;-3.52;67.38;99750.63;4986824;28;20050;-75
2023/03/11 07:21:07;;;;;;;0.90;0.28;;;;;;;-3.46;67.60;99745.66;4990046;28;20054;-75
2023/03/11 07:23:35;;;;;;;4.18;0.43;;;;;;;-3.40;67.57;99755.13;4978749;28;20047;-76
2023/03/11 07:26:02;;;;;;;2.88;0.65;;;;;;;-3.36;67.34;99745.84;4988953;28;20510;-75
2023/03/11 07:28:29;;;;;;;1.08;0.30;;;;;;;-3.41;67.66;99731.31;4984976;28;20054;-75
2023/03/11 07:30:56;;;;;;;0.90;0.40;;;;;;;-3.34;67.53;99728.88;4984200;28;20038;-75
2023/03/11 07:33:24;;;;;;;1.50;0.20;;;;;;;-3.20;67.53;99747.88;4979990;28;20046;-75
2023/03/11 07:35:52;;;;;;;1.85;0.35;;;;;;;-3.15;67.55;99740.34;4989437;28;20425;-77
2023/03/11 07:38:19;;;;;;;2.47;0.35;;;;;;;-3.21;67.71;99721.50;4982925;28;20097;-75
2023/03/11 07:40:46;;;;;;;1.27;0.43;;;;;;;-3.08;67.44;99732.81;4989856;28;20050;-74
2023/03/11 07:43:13;;;;;;;2.15;0.40;;;;;;;-3.02;67.46;99730.34;4986457;28;20046;-75
2023/03/11 07:45:40;;;;;;;1.23;0.35;;;;;;;-2.94;67.38;99733.06;4988736;28;20482;-74
2023/03/11 07:48:07;;;;;;;1.73;0.30;;;;;;;-2.89;67.46;99733.16;4976274;28;20051;-75
2023/03/11 07:50:34;;;;;;;3.35;0.25;;;;;;;-2.86;67.75;99723.84;4980328;28;20118;-81
2023/03/11 07:53:02;;;;;;;2.35;0.35;;;;;;;-2.78;67.34;99729.13;4979589;28;20055;-76
2023/03/11 07:55:29;;;;;;;0.50;0.30;;;;;;;-2.72;67.38;99721.56;4986810;28;20068;-76
2023/03/11 07:57:56;;;;;;;1.95;0.40;;;;;;;-2.66;67.54;99725.94;4988724;28;20053;-76
2023/03/11 08:00:23;;;;;;;4.38;0.30;;;;;;;-2.63;67.25;99721.72;4991276;28;20702;-77
2023/03/11 08:02:50;;;;;;;1.98;0.30;;;;;;;-2.55;66.92;99720.16;4978564;28;20077;-76
2023/03/11 08:05:19;;;;;;;3.78;0.40;;;;;;;-2.62;67.30;99705.56;4987221;28;20046;-76
2023/03/11 08:07:46;;;;;;;5.18;0.38;;;;;;;-2.47;67.50;99722.00;4983832;28;20039;-77
2023/03/11 08:10:14;;;;;;;1.38;0.40;;;;;;;-2.40;67.14;99721.25;4983966;28;20050;-76
2023/03/11 08:12:41;;;;;;;2.33;0.47;;;;;;;-2.41;67.13;99711.88;4981711;28;20503;-76
2023/03/11 08:15:09;;;;;;;1.33;0.35;;;;;;;-2.29;67.30;99719.75;4976604;28;20050;-76
2023/03/11 08:17:36;;;;;;;0.77;0.30;;;;;;;-2.24;67.35;99720.69;4978207;28;20035;-76
2023/03/11 08:20:07;;;;;;;2.03;0.35;;;;;;;-2.19;66.88;99718.19;4987294;28;20521;-76
2023/03/11 08:22:34;;;;;;;1.58;0.40;;;;;;;-2.14;66.88;99701.22;4988065;28;20127;-76
2023/03/11 08:25:01;;;;;;;2.30;0.45;;;;;;;-2.08;66.95;99709.84;4983171;28;20051;-76
2023/03/11 08:27:29;;;;;;;1.73;0.17;;;;;;;-2.07;66.95;99697.91;4979174;28;20050;-76
2023/03/11 08:29:56;;;;;;;2.58;0.30;;;;;;;-2.03;66.88;99700.53;4983929;28;20053;-76
2023/03/11 08:32:23;;;;;;;0.80;0.50;;;;;;;-1.92;67.12;99712.63;4985647;28;20510;-76
2023/03/11 08:34:50;;;;;;;1.33;0.30;;;;;;;-1.87;67.20;99695.66;4987185;28;20054;-76
2023/03/11 08:37:17;;;;;;;0.95;0.30;;;;;;;-1.81;66.67;99708.53;4977488;28;20057;-77
2023/03/11 08:39:44;;;;;;;1.00;0.40;;;;;;;-1.80;67.12;99694.88;4980255;28;20531;-76
2023/03/11 08:42:10;;;;;;;3.33;0.20;;;;;;;-1.75;66.84;99690.69;4988603;28;20076;-76
2023/03/11 08:44:39;;;;;;;1.65;0.50;;;;;;;-1.68;66.87;99697.63;4985347;28;20502;-76
2023/03/11 08:47:06;;;;;;;0.77;0.20;;;;;;;-1.58;66.59;99701.16;4991769;28;20087;-76
2023/03/11 08:49:34;;;;;;;1.20;0.30;;;;;;;-1.52;66.78;99701.25;4987012;28;20130;-76
2023/03/11 08:52:02;;;;;;;1.05;0.30;;;;;;;-1.46;66.35;99709.00;4987422;28;20046;-76
2023/03/11 08:54:29;;;;;;;0.60;0.40;;;;;;;-1.42;66.82;99697.13;4978579;28;20051;-76
2023/03/11 08:56:55;;;;;;;4.55;0.30;;;;;;;-1.50;66.76;99670.53;4984793;28;20039;-76
2023/03/11 08:59:22;;;;;;;3.88;0.30;;;;;;;-1.26;66.91;99700.72;4988109;28;20396;-77
2023/03/11 09:01:51;;;;;;;3.70;0.30;;;;;;;-1.28;66.76;99687.91;4985646;28;20419;-77
2023/03/11 09:04:17;;;;;;;2.85;0.50;;;;;;;-1.15;66.62;99694.88;4979533;28;20058;-76
2023/03/11 09:06:45;;;;;;;1.55;0.55;;;;;;;-1.10;66.56;99681.25;4986768;28;20572;-76
2023/03/11 09:09:12;;;;;;;1.83;0.32;;;;;;;-1.16;66.24;99672.66;4979212;28;20042;-76
2023/03/11 09:11:40;;;;;;;3.78;0.30;;;;;;;-1.00;66.59;99685.63;4987939;28;20050;-76
2023/03/11 09:14:07;;;;;;;2.08;0.30;;;;;;;-0.89;66.39;99689.16;4978198;28;20483;-77
2023/03/11 09:16:34;;;;;;;3.00;0.30;;;;;;;-0.82;66.47;99685.84;4988203;28;20050;-76
2023/03/11 09:19:06;;;;;;;1.48;0.20;;;;;;;-0.75;66.44;99684.19;4982906;28;20048;-76
2023/03/11 09:21:32;;;;;;;0.52;0.28;;;;;;;-0.68;66.76;99680.84;4986804;28;20498;-75
2023/03/11 09:24:00;;;;;;;2.05;0.50;;;;;;;-0.60;66.16;99683.44;4979679;28;20050;-75
2023/03/11 09:26:27;;;;;;;2.40;0.28;;;;;;;-0.61;66.16;99667.22;4981498;28;20050;-78
2023/03/11 09:28:54;;;;;;;0.85;0.30;;;;;;;-0.59;66.09;99659.53;4988973;28;20538;-76
2023/03/11 09:31:21;;;;;;;1.98;0.50;;;;;;;-0.43;65.71;99665.66;4978995;28;20395;-76
2023/03/11 09:33:48;;;;;;;1.05;0.40;;;;;;;-0.38;66.06;99669.13;4986844;28;20652;-75
2023/03/11 09:36:19;;;;;;;1.23;0.93;;;;;;;-0.28;66.11;99669.19;4978255;28;20502;-76
2023/03/11 09:38:46;;;;;;;0.77;0.30;;;;;;;-0.25;65.99;99671.78;4986359;28;20038;-76
2023/03/11 09:41:22;;;;;;;1.30;0.30;;;;;;;-0.14;66.27;99682.16;4978984;28;20093;-76
2023/03/11 09:44:04;;;;;;;2.55;0.40;;;;;;;-0.10;65.81;99667.63;4980739;28;20502;-75
2023/03/11 09:46:57;;;;;;;3.00;0.30;;;;;;;-0.04;65.70;99670.22;4977270;28;20691;-76
2023/03/11 09:49:35;;;;;;;1.30;0.20;;;;;;;-0.07;65.48;99657.38;4986166;28;20056;-75
2023/03/11 09:52:09;;;;;;;0.73;0.73;;;;;;;0.02;65.51;99670.25;4988245;28;20080;-76
2023/03/11 09:54:40;;;;;;;0.65;0.20;;;;;;;0.01;65.01;99662.56;4984834;28;20050;-75
2023/03/11 09:57:13;;;;;;;0.65;0.30;;;;;;;0.10;65.05;99675.44;4988014;28;20050;-75
2023/03/11 09:59:42;;;;;;;1.27;0.30;;;;;;;0.16;64.71;99672.91;4976964;28;20546;-75
2023/03/11 10:02:14;;;;;;;0.70;0.22;;;;;;;0.21;65.19;99677.22;4985359;28;20050;-76
2023/03/11 10:04:45;;;;;;;0.98;0.30;;;;;;;0.22;64.85;99671.22;4984045;28;20046;-76
2023/03/11 10:07:20;;;;;;;1.17;0.50;;;;;;;0.32;65.06;99679.00;4976826;28;20057;-76
2023/03/11 10:09:51;;;;;;;2.08;0.20;;;;;;;0.31;65.06;99657.56;4988029;28;20089;-76
2023/03/11 10:12:29;;;;;;;2.22;0.22;;;;;;;0.37;64.58;99661.88;4985754;28;20550;-76
2023/03/11 10:15:09;;;;;;;2.70;0.30;;;;;;;0.36;65.09;99650.75;4987862;28;20102;-77
2023/03/11 10:17:50;;;;;;;1.30;0.30;;;;;;;0.49;64.82;99656.81;4985749;28;20503;-76
2023/03/11 10:20:22;;;;;;;1.10;0.50;;;;;;;0.52;65.45;99661.97;4980807;28;20056;-76
2023/03/11 10:23:01;;;;;;;0.85;0.32;;;;;;;0.53;64.49;99650.84;4977352;28;20046;-77
2023/03/11 10:25:32;;;;;;;1.23;0.30;;;;;;;0.66;65.07;99662.03;4979402;28;20047;-77
2023/03/11 10:28:05;;;;;;;0.75;0.28;;;;;;;0.66;64.65;99654.31;4990876;28;20058;-77
2023/03/11 10:30:36;;;;;;;4.07;0.30;;;;;;;0.71;64.73;99652.59;4973818;28;20054;-76
2023/03/11 10:33:13;;;;;;;0.73;0.20;;;;;;;0.79;64.33;99650.06;4983995;28;20406;-78
2023/03/11 10:35:43;;;;;;;2.45;0.50;;;;;;;0.71;64.06;99634.59;4985868;28;20046;-77
2023/03/11 10:38:18;;;;;;;1.15;0.40;;;;;;;0.83;64.21;99659.53;4976507;28;20051;-77
2023/03/11 10:40:47;;;;;;;1.10;0.30;;;;;;;0.81;64.23;99641.50;4986405;28;20057;-77
2023/03/11 10:43:17;;;;;;;0.90;0.30;;;;;;;0.89;64.01;99649.25;4975032;28;20054;-77
2023/03/11 10:45:47;;;;;;;3.83;0.30;;;;;;;0.83;63.95;99631.25;4979575;28;20061;-76
2023/03/11 10:48:16;;;;;;;1.55;0.30;;;;;;;0.85;64.05;99635.53;4982479;28;20054;-78
2023/03/11 10:50:50;;;;;;;1.60;0.25;;;;;;;0.96;63.71;99645.81;4983669;28;20066;-76
2023/03/11 10:53:20;;;;;;;4.65;0.50;;;;;;;1.03;64.00;99644.13;4991300;28;20414;-76
2023/03/11 10:55:49;;;;;;;3.00;0.30;;;;;;;0.94;64.41;99624.41;4988080;28;20042;-78
2023/03/11 10:58:18;;;;;;;1.77;0.30;;;;;;;1.06;63.95;99641.56;4977894;28;20047;-77
2023/03/11 11:00:45;;;;;;;0.50;0.20;;;;;;;1.12;64.10;99649.28;4981208;28;20056;-76
2023/03/11 11:03:23;;;;;;;1.00;0.30;;;;;;;1.12;63.72;99642.44;4983923;28;20582;-77
2023/03/11 11:05:59;;;;;;;1.55;0.32;;;;;;;1.06;64.02;99629.56;4978203;28;20058;-77
2023/03/11 11:08:28;;;;;;;0.95;0.40;;;;;;;1.08;63.23;99627.88;4988059;28;20065;-76
2023/03/11 11:10:56;;;;;;;0.68;0.30;;;;;;;1.08;63.28;99615.00;4985578;28;20047;-77
2023/03/11 11:13:25;;;;;;;0.50;0.20;;;;;;;1.25;63.99;99639.88;4975680;28;20062;-78
2023/03/11 11:16:01;;;;;;;1.38;0.22;;;;;;;1.25;62.87;99637.28;4985080;28;20051;-77
2023/03/11 11:18:32;;;;;;;4.13;0.40;;;;;;;1.23;63.11;99631.31;4982049;28;20396;-76
2023/03/11 11:21:02;;;;;;;3.95;0.30;;;;;;;1.29;62.78;99633.88;4984546;28;20056;-78
2023/03/11 11:23:38;;;;;;;0.60;0.22;;;;;;;1.28;63.36;99635.59;4981591;28;20058;-77
2023/03/11 11:26:08;;;;;;;2.35;0.38;;;;;;;1.22;63.29;99611.56;4990110;28;20132;-77
2023/03/11 11:28:36;;;;;;;1.00;0.30;;;;;;;1.32;63.71;99634.72;4986379;28;20066;-77
2023/03/11 11:31:05;;;;;;;1.27;0.30;;;;;;;1.30;63.60;99627.88;4992861;28;20422;-77
2023/03/11 11:33:33;;;;;;;0.82;0.40;;;;;;;1.30;62.90;99622.72;4985882;28;20050;-78
2023/03/11 11:36:03;;;;;;;1.73;0.40;;;;;;;1.39;62.87;99643.31;4990875;28;20062;-77
2023/03/11 11:38:32;;;;;;;0.88;0.30;;;;;;;1.36;62.92;99617.56;4987207;28;20051;-77
2023/03/11 11:41:04;;;;;;;0.88;0.40;;;;;;;1.36;62.70;99627.88;4979308;28;20046;-76